Time;durP1;ratioP1;P1;durP2;ratioP2;P2;SDS_P1;SDS_P2;PMS_P1;PMS_P2;Temp;Humidity;BMP_temperature;BMP_pressure;BME280_temperature;BME280_humidity;BME280_pressure;Samples;Min_cycle;Max_cycle;Signal;HPM_P1;HPM_P2
2022/12/29 00:01:36;;;;;;;1.70;1.30;;;11.40;87.60;;;;;;5062187;28;20408;-77
2022/12/29 00:04:03;;;;;;;1.55;1.45;;;11.40;86.40;;;;;;5065677;28;20472;-79
2022/12/29 00:06:31;;;;;;;3.30;1.30;;;11.40;87.20;;;;;;5060161;28;20377;-78
2022/12/29 00:08:56;;;;;;;1.80;1.60;;;11.40;87.30;;;;;;5058959;28;20838;-77
2022/12/29 00:11:25;;;;;;;1.97;1.20;;;11.40;87.40;;;;;;5057798;28;20382;-79
2022/12/29 00:16:36;;;;;;;1.30;1.20;;;11.40;87.90;;;;;;5056641;28;20507;-76
2022/12/29 00:19:02;;;;;;;1.30;1.20;;;11.50;86.90;;;;;;5056084;28;20385;-76
2022/12/29 00:35:30;;;;;;;1.70;1.10;;;11.50;88.20;;;;;;5065255;28;20399;-76
2022/12/29 00:46:15;;;;;;;1.40;1.17;;;11.60;88.80;;;;;;5064834;28;20384;-78
2022/12/29 00:51:25;;;;;;;1.30;0.90;;;11.60;87.30;;;;;;5062358;28;20384;-77
2022/12/29 00:53:50;;;;;;;2.20;1.20;;;11.80;82.20;;;;;;5063252;28;20393;-76
2022/12/29 00:56:16;;;;;;;1.50;1.20;;;11.80;81.50;;;;;;5062768;28;20389;-78
2022/12/29 00:58:41;;;;;;;2.00;1.10;;;11.90;81.00;;;;;;5055774;28;20401;-78
2022/12/29 01:01:08;;;;;;;2.80;1.53;;;11.80;81.20;;;;;;5057706;28;20417;-77
2022/12/29 01:03:35;;;;;;;2.60;0.90;;;11.90;80.70;;;;;;5043125;28;20381;-77
2022/12/29 01:06:06;;;;;;;1.88;1.00;;;11.90;79.40;;;;;;5058315;28;20939;-77
2022/12/29 01:08:31;;;;;;;0.93;0.83;;;11.90;78.50;;;;;;5058246;28;20413;-78
2022/12/29 01:10:59;;;;;;;1.70;1.00;;;11.90;78.80;;;;;;5053889;28;20846;-77
2022/12/29 01:13:24;;;;;;;1.00;0.90;;;12.00;78.70;;;;;;5060429;28;20405;-76
2022/12/29 01:15:51;;;;;;;1.30;1.15;;;11.90;78.50;;;;;;5057209;28;20401;-78
2022/12/29 01:18:17;;;;;;;2.65;1.40;;;11.90;79.50;;;;;;5060040;28;20468;-77
2022/12/29 01:20:42;;;;;;;1.48;0.90;;;11.90;79.00;;;;;;5063634;28;20437;-78
2022/12/29 01:23:08;;;;;;;1.13;0.80;;;11.90;77.90;;;;;;5065367;28;20381;-78
2022/12/29 01:25:33;;;;;;;1.10;0.80;;;12.00;75.80;;;;;;5065723;28;20393;-77
2022/12/29 01:27:59;;;;;;;2.57;1.00;;;12.10;74.10;;;;;;5056206;28;20385;-76
2022/12/29 01:30:24;;;;;;;1.20;0.80;;;12.20;73.30;;;;;;5057936;28;20393;-77
2022/12/29 01:32:50;;;;;;;1.63;1.38;;;12.20;73.10;;;;;;5053942;28;20396;-78
2022/12/29 01:35:15;;;;;;;1.03;0.70;;;12.30;71.80;;;;;;5055846;28;21011;-77
2022/12/29 01:37:41;;;;;;;0.90;0.70;;;12.30;70.00;;;;;;5056357;28;20906;-76
2022/12/29 01:40:07;;;;;;;1.53;0.70;;;12.40;69.00;;;;;;5053509;28;20409;-76
2022/12/29 01:42:32;;;;;;;1.90;0.70;;;12.40;67.80;;;;;;5052633;28;20381;-76
2022/12/29 01:45:03;;;;;;;1.00;0.70;;;12.40;67.30;;;;;;5052928;28;20956;-76
2022/12/29 01:47:38;;;;;;;1.00;0.70;;;12.40;66.90;;;;;;5053532;28;20377;-79
2022/12/29 01:50:30;;;;;;;0.90;0.80;;;12.40;67.10;;;;;;5055509;28;20409;-76
2022/12/29 01:53:05;;;;;;;0.98;0.70;;;12.40;65.10;;;;;;5061255;28;20381;-77
2022/12/29 01:55:36;;;;;;;1.10;0.90;;;12.50;64.70;;;;;;5063015;28;20396;-77
2022/12/29 01:58:05;;;;;;;1.30;0.80;;;12.50;63.50;;;;;;5058429;28;20396;-77
2022/12/29 02:00:31;;;;;;;0.88;0.70;;;12.50;63.60;;;;;;5063108;28;20398;-77
2022/12/29 02:02:57;;;;;;;1.90;1.00;;;12.40;63.00;;;;;;5059103;28;20890;-77
2022/12/29 02:05:39;;;;;;;2.50;0.70;;;12.40;62.80;;;;;;5059560;28;20397;-76
2022/12/29 02:08:05;;;;;;;2.30;0.80;;;12.40;62.20;;;;;;5062842;28;20388;-77
2022/12/29 02:10:34;;;;;;;1.60;0.80;;;12.40;60.60;;;;;;5056745;28;20406;-77
2022/12/29 02:12:59;;;;;;;1.70;0.80;;;12.50;60.60;;;;;;5040177;28;20746;-77
2022/12/29 02:15:51;;;;;;;2.23;1.00;;;12.50;59.60;;;;;;5054013;28;20416;-75
2022/12/29 02:19:10;;;;;;;1.73;0.90;;;12.50;59.30;;;;;;5061120;28;20492;-76
2022/12/29 02:21:41;;;;;;;1.88;0.80;;;12.50;59.10;;;;;;4959125;29;21009;-76
2022/12/29 02:24:20;;;;;;;1.60;1.10;;;12.40;58.90;;;;;;5044992;28;20405;-76
2022/12/29 02:27:17;;;;;;;1.77;0.90;;;12.50;57.90;;;;;;5046957;28;20377;-77
2022/12/29 02:30:04;;;;;;;1.70;0.80;;;12.50;56.10;;;;;;5059636;28;20413;-76
2022/12/29 02:33:08;;;;;;;1.38;1.10;;;12.50;54.80;;;;;;5058246;28;20445;-76
2022/12/29 02:35:44;;;;;;;3.38;1.20;;;12.60;54.30;;;;;;5032163;28;20405;-77
2022/12/29 02:38:32;;;;;;;1.40;1.00;;;12.60;54.50;;;;;;5065129;28;20750;-78
2022/12/29 02:41:07;;;;;;;3.78;1.00;;;12.50;54.50;;;;;;5054344;28;20401;-78
2022/12/29 02:43:50;;;;;;;2.55;1.02;;;12.50;54.00;;;;;;5062643;28;20801;-75
2022/12/29 02:46:27;;;;;;;1.70;1.13;;;12.60;53.30;;;;;;5062816;28;20373;-77
2022/12/29 02:49:17;;;;;;;3.10;1.10;;;12.60;53.40;;;;;;5054846;28;20401;-76
2022/12/29 02:52:00;;;;;;;3.60;0.90;;;12.60;53.70;;;;;;5059522;28;20374;-77
2022/12/29 02:54:41;;;;;;;2.83;1.10;;;12.60;52.80;;;;;;5070057;28;20378;-75
2022/12/29 02:57:29;;;;;;;2.55;1.10;;;12.70;52.60;;;;;;5070358;28;20382;-75
2022/12/29 03:00:00;;;;;;;1.90;1.15;;;12.70;53.00;;;;;;5063601;28;20406;-78
2022/12/29 03:02:46;;;;;;;2.20;1.60;;;12.70;52.90;;;;;;5068266;28;20430;-74
2022/12/29 03:05:55;;;;;;;1.70;1.00;;;12.60;53.50;;;;;;5055498;28;20405;-76
2022/12/29 03:08:54;;;;;;;2.10;1.02;;;12.70;53.20;;;;;;5066863;28;20377;-76
2022/12/29 03:17:09;;;;;;;2.97;0.90;;;12.70;54.00;;;;;;5031222;28;20383;-76
2022/12/29 03:19:37;;;;;;;1.52;0.90;;;12.70;54.90;;;;;;5030629;28;20407;-75
2022/12/29 03:22:27;;;;;;;1.80;1.10;;;12.70;54.30;;;;;;5030243;28;20390;-73
2022/12/29 03:24:57;;;;;;;1.10;1.00;;;12.70;54.40;;;;;;5011451;28;20377;-73
2022/12/29 03:27:28;;;;;;;2.00;1.20;;;12.70;54.60;;;;;;5026447;28;20451;-74
2022/12/29 03:30:00;;;;;;;1.80;1.25;;;12.70;55.00;;;;;;5011272;28;20393;-74
2022/12/29 03:32:33;;;;;;;1.10;0.80;;;12.70;54.30;;;;;;5011273;28;20514;-73
2022/12/29 03:35:00;;;;;;;1.67;1.10;;;12.80;54.20;;;;;;5012659;28;20380;-74
2022/12/29 03:37:31;;;;;;;1.83;0.90;;;12.80;54.50;;;;;;5011386;28;20467;-75
2022/12/29 03:39:57;;;;;;;3.17;1.13;;;12.70;55.50;;;;;;5011789;28;20432;-75
2022/12/29 03:42:27;;;;;;;1.83;0.90;;;12.80;54.90;;;;;;4994030;28;20439;-74
2022/12/29 03:44:58;;;;;;;1.85;0.90;;;12.90;54.50;;;;;;5011255;28;20412;-74
2022/12/29 03:47:25;;;;;;;1.13;0.98;;;12.80;54.10;;;;;;5010978;28;20384;-75
2022/12/29 03:49:51;;;;;;;2.15;0.80;;;12.90;54.20;;;;;;5011054;28;20567;-73
2022/12/29 03:52:17;;;;;;;3.50;1.08;;;12.80;54.20;;;;;;5012980;28;20393;-73
2022/12/29 03:54:43;;;;;;;1.60;0.90;;;12.90;53.70;;;;;;5023141;28;20400;-74
2022/12/29 03:57:09;;;;;;;2.13;1.08;;;12.80;53.90;;;;;;5017981;28;20401;-74
2022/12/29 03:59:35;;;;;;;2.15;1.10;;;12.90;53.80;;;;;;5013090;28;20405;-74
2022/12/29 04:02:01;;;;;;;3.00;1.07;;;12.90;53.30;;;;;;5020540;28;20396;-72
2022/12/29 04:04:26;;;;;;;1.50;0.80;;;13.00;53.00;;;;;;5027308;28;20385;-74
2022/12/29 04:06:52;;;;;;;2.20;0.90;;;13.00;53.50;;;;;;5033433;28;20459;-74
2022/12/29 04:09:17;;;;;;;1.23;0.90;;;12.90;53.60;;;;;;5022667;28;20936;-73
2022/12/29 04:11:43;;;;;;;1.55;1.05;;;12.90;54.30;;;;;;5013810;28;20854;-74
2022/12/29 04:14:08;;;;;;;2.03;0.90;;;12.90;54.30;;;;;;5014158;28;20401;-74
2022/12/29 04:16:35;;;;;;;1.00;0.80;;;12.90;54.60;;;;;;5014534;28;20389;-74
2022/12/29 04:19:01;;;;;;;2.05;0.85;;;12.80;55.20;;;;;;5015144;28;21059;-73
2022/12/29 04:21:27;;;;;;;2.88;0.80;;;12.90;54.70;;;;;;5019704;28;20427;-74
2022/12/29 04:23:53;;;;;;;1.30;0.90;;;12.90;54.20;;;;;;5022871;28;20381;-73
2022/12/29 04:26:18;;;;;;;2.40;0.80;;;12.90;53.50;;;;;;5034734;28;20438;-74
2022/12/29 04:28:44;;;;;;;2.30;1.00;;;13.00;53.20;;;;;;5031083;28;20385;-76
2022/12/29 04:31:10;;;;;;;1.80;0.90;;;13.00;53.90;;;;;;5024251;28;20446;-73
2022/12/29 04:33:35;;;;;;;1.50;0.90;;;13.00;53.00;;;;;;5013890;28;20401;-75
2022/12/29 04:36:01;;;;;;;2.67;1.20;;;12.90;52.70;;;;;;5013867;28;20392;-74
2022/12/29 04:38:26;;;;;;;1.20;0.90;;;12.90;52.70;;;;;;5013885;28;20388;-75
2022/12/29 04:40:52;;;;;;;1.70;0.90;;;12.80;52.90;;;;;;5013092;28;20483;-74
2022/12/29 04:43:22;;;;;;;1.52;0.82;;;12.80;53.00;;;;;;5028707;28;20419;-74
2022/12/29 04:45:47;;;;;;;1.50;1.00;;;12.80;52.70;;;;;;5017438;28;20389;-75
2022/12/29 04:48:14;;;;;;;1.77;0.90;;;12.80;52.30;;;;;;5019139;28;20392;-75
2022/12/29 04:50:40;;;;;;;1.70;1.10;;;12.70;53.50;;;;;;5016478;28;20800;-75
2022/12/29 04:53:06;;;;;;;1.90;0.95;;;12.70;52.20;;;;;;5013324;28;20760;-75
2022/12/29 04:55:31;;;;;;;3.67;1.00;;;12.80;51.00;;;;;;5014125;28;20385;-75
2022/12/29 04:57:57;;;;;;;1.70;1.08;;;12.90;49.80;;;;;;5014625;28;20381;-75
2022/12/29 05:00:23;;;;;;;2.80;1.00;;;12.90;49.00;;;;;;5014079;28;20785;-75
2022/12/29 05:02:48;;;;;;;2.70;1.25;;;13.00;48.80;;;;;;5012836;28;20884;-77
2022/12/29 05:05:14;;;;;;;2.00;1.17;;;13.00;49.10;;;;;;5012188;28;20480;-73
2022/12/29 05:07:40;;;;;;;3.07;1.40;;;12.90;48.90;;;;;;5013560;28;20762;-72
2022/12/29 05:10:06;;;;;;;1.70;1.00;;;13.00;49.10;;;;;;5013009;28;20404;-75
2022/12/29 05:12:34;;;;;;;2.83;1.02;;;13.00;48.70;;;;;;5012077;28;20467;-72
2022/12/29 05:15:00;;;;;;;2.85;1.05;;;13.00;48.80;;;;;;5027924;28;20746;-75
2022/12/29 05:17:26;;;;;;;6.93;1.30;;;12.90;48.90;;;;;;5013040;28;20865;-75
2022/12/29 05:19:51;;;;;;;2.43;1.10;;;12.90;49.30;;;;;;5013049;28;20431;-76
2022/12/29 05:22:17;;;;;;;1.70;1.30;;;13.00;48.80;;;;;;5012379;28;20389;-76
2022/12/29 05:24:43;;;;;;;2.50;1.10;;;13.00;48.60;;;;;;5015493;28;20860;-74
2022/12/29 05:27:08;;;;;;;2.27;1.40;;;13.00;48.80;;;;;;5017325;28;20458;-75
2022/12/29 05:29:34;;;;;;;2.92;1.20;;;12.90;49.20;;;;;;5017271;28;20866;-75
2022/12/29 05:31:59;;;;;;;2.17;1.00;;;13.00;49.00;;;;;;5014896;28;20416;-74
2022/12/29 05:34:25;;;;;;;2.45;1.10;;;12.90;49.50;;;;;;5012794;28;20401;-75
2022/12/29 05:36:51;;;;;;;2.50;0.83;;;12.80;49.60;;;;;;5012406;28;20931;-76
2022/12/29 05:39:16;;;;;;;3.30;1.00;;;12.80;49.50;;;;;;5027303;28;20451;-75
2022/12/29 05:41:42;;;;;;;2.80;1.10;;;12.80;49.60;;;;;;5011993;28;20388;-75
2022/12/29 05:44:09;;;;;;;2.13;1.10;;;12.70;50.40;;;;;;5012405;28;20424;-76
2022/12/29 05:46:34;;;;;;;3.33;1.10;;;12.60;50.90;;;;;;5012294;28;20385;-74
2022/12/29 05:49:00;;;;;;;3.77;1.47;;;12.60;51.00;;;;;;5012141;28;20443;-74
2022/12/29 05:51:25;;;;;;;2.47;1.20;;;12.60;50.80;;;;;;5011957;28;20388;-74
2022/12/29 05:53:51;;;;;;;2.75;1.10;;;12.60;50.60;;;;;;5027114;28;20435;-73
2022/12/29 05:56:17;;;;;;;3.33;1.00;;;12.70;50.60;;;;;;5012030;28;20385;-74
2022/12/29 05:58:42;;;;;;;2.50;1.00;;;12.70;49.40;;;;;;5012092;28;20757;-76
2022/12/29 06:01:08;;;;;;;5.10;1.20;;;12.80;48.80;;;;;;5011548;28;20743;-74
2022/12/29 06:03:33;;;;;;;1.48;1.08;;;12.80;48.70;;;;;;5012028;28;20687;-75
2022/12/29 06:05:59;;;;;;;3.20;1.00;;;12.80;48.20;;;;;;5012357;28;20393;-75
2022/12/29 06:08:24;;;;;;;2.85;1.38;;;12.80;47.60;;;;;;5012033;28;20385;-74
2022/12/29 06:10:50;;;;;;;3.70;1.50;;;12.80;48.40;;;;;;5011524;28;20392;-75
2022/12/29 06:13:16;;;;;;;2.10;1.00;;;12.80;46.90;;;;;;5011325;28;20451;-73
2022/12/29 06:15:41;;;;;;;4.53;1.10;;;12.80;47.10;;;;;;5011911;28;20384;-74
2022/12/29 06:18:07;;;;;;;3.60;1.20;;;12.80;46.60;;;;;;5011971;28;20420;-75
2022/12/29 06:20:33;;;;;;;2.83;1.00;;;12.70;47.30;;;;;;5011862;28;20413;-75
2022/12/29 06:22:58;;;;;;;2.90;1.50;;;12.60;48.00;;;;;;5012178;28;20392;-74
2022/12/29 06:25:24;;;;;;;3.10;1.40;;;12.50;48.80;;;;;;5011829;28;20389;-75
2022/12/29 06:27:50;;;;;;;3.17;1.08;;;12.30;49.60;;;;;;5012621;28;20425;-74
2022/12/29 06:30:16;;;;;;;4.23;1.20;;;12.30;50.40;;;;;;5013386;28;20385;-74
2022/12/29 06:32:42;;;;;;;2.10;1.27;;;12.20;50.30;;;;;;5013046;28;20389;-77
2022/12/29 06:35:09;;;;;;;5.15;1.50;;;12.20;51.30;;;;;;5030456;28;20396;-74
2022/12/29 06:37:34;;;;;;;2.60;1.17;;;12.10;52.10;;;;;;5030603;28;20389;-74
2022/12/29 06:40:00;;;;;;;3.50;1.30;;;12.10;51.80;;;;;;5024172;28;20988;-74
2022/12/29 06:42:25;;;;;;;4.15;1.38;;;12.20;50.90;;;;;;5012936;28;20385;-75
2022/12/29 06:44:52;;;;;;;5.57;1.50;;;12.20;51.10;;;;;;5016948;28;20385;-74
2022/12/29 06:47:18;;;;;;;4.25;1.30;;;12.30;50.50;;;;;;5023574;28;20381;-75
2022/12/29 06:49:44;;;;;;;4.97;1.38;;;12.40;49.90;;;;;;5016477;28;20484;-75
2022/12/29 06:52:09;;;;;;;2.17;1.15;;;12.40;49.30;;;;;;5012054;28;20416;-73
2022/12/29 06:54:35;;;;;;;5.22;1.33;;;12.40;48.60;;;;;;5021884;28;20428;-73
2022/12/29 06:57:00;;;;;;;4.70;1.20;;;12.40;48.50;;;;;;5023582;28;20464;-75
2022/12/29 06:59:26;;;;;;;4.03;1.03;;;12.40;48.20;;;;;;5012177;28;20897;-74
2022/12/29 07:01:52;;;;;;;2.40;1.60;;;12.50;47.20;;;;;;5010303;28;20957;-74
2022/12/29 07:04:18;;;;;;;5.22;1.10;;;12.50;46.40;;;;;;5009832;28;20806;-74
2022/12/29 07:06:43;;;;;;;3.40;1.25;;;12.40;46.40;;;;;;5017935;28;20483;-76
2022/12/29 07:09:09;;;;;;;4.40;1.10;;;12.40;46.60;;;;;;5023235;28;20468;-75
2022/12/29 07:11:35;;;;;;;5.60;1.60;;;12.40;46.90;;;;;;5014427;28;20724;-76
2022/12/29 07:14:01;;;;;;;3.70;1.20;;;12.50;46.50;;;;;;5010847;28;20915;-74
2022/12/29 07:16:29;;;;;;;6.22;1.25;;;12.40;46.40;;;;;;5011227;28;20405;-75
2022/12/29 07:18:54;;;;;;;5.63;1.40;;;12.30;46.30;;;;;;5012167;28;20467;-75
2022/12/29 07:21:20;;;;;;;5.80;1.30;;;12.30;46.00;;;;;;5011061;28;20563;-74
2022/12/29 07:23:46;;;;;;;4.50;0.90;;;12.10;46.70;;;;;;5012447;28;20460;-75
2022/12/29 07:26:13;;;;;;;3.73;1.30;;;12.10;46.20;;;;;;5011489;28;20393;-75
2022/12/29 07:28:39;;;;;;;4.85;1.63;;;12.00;47.00;;;;;;5012507;28;20376;-75
2022/12/29 07:31:06;;;;;;;5.30;1.50;;;11.90;48.10;;;;;;5011817;28;20945;-76
2022/12/29 07:33:32;;;;;;;6.00;1.20;;;12.00;48.80;;;;;;5012919;28;20411;-76
2022/12/29 07:35:58;;;;;;;3.20;1.40;;;12.00;49.00;;;;;;5011874;28;20394;-73
2022/12/29 07:38:24;;;;;;;2.20;1.10;;;12.00;47.80;;;;;;5014881;28;20552;-75
2022/12/29 07:40:50;;;;;;;5.10;1.60;;;12.10;47.30;;;;;;5029253;28;20421;-71
2022/12/29 07:43:15;;;;;;;6.17;1.60;;;12.10;47.80;;;;;;5014379;28;20889;-74
2022/12/29 07:45:41;;;;;;;6.37;1.30;;;12.10;46.00;;;;;;5015152;28;20467;-75
2022/12/29 07:48:08;;;;;;;6.63;1.60;;;12.20;45.00;;;;;;5015710;28;20383;-74
2022/12/29 07:50:34;;;;;;;8.40;1.50;;;12.30;43.50;;;;;;5015062;28;20403;-75
2022/12/29 07:53:00;;;;;;;3.83;1.70;;;12.30;43.60;;;;;;5014884;28;20908;-76
2022/12/29 07:55:25;;;;;;;4.90;1.50;;;12.30;43.20;;;;;;5029978;28;20397;-75
2022/12/29 07:57:53;;;;;;;5.23;1.90;;;12.30;42.60;;;;;;5014871;28;20881;-75
2022/12/29 08:00:19;;;;;;;6.38;1.75;;;12.30;42.90;;;;;;5015103;28;20412;-74
2022/12/29 08:02:45;;;;;;;8.52;2.10;;;12.30;42.20;;;;;;5013441;28;20468;-74
2022/12/29 08:05:10;;;;;;;6.15;1.67;;;12.30;42.40;;;;;;5014502;28;20746;-73
2022/12/29 08:07:36;;;;;;;5.05;1.60;;;12.30;41.80;;;;;;5014357;28;20403;-77
2022/12/29 08:10:02;;;;;;;8.82;1.80;;;12.20;42.10;;;;;;5029595;28;20439;-74
2022/12/29 08:12:27;;;;;;;10.93;1.70;;;12.20;42.40;;;;;;5013359;28;20427;-75
2022/12/29 08:14:53;;;;;;;6.30;1.80;;;12.20;42.90;;;;;;5014680;28;20395;-74
2022/12/29 08:17:18;;;;;;;3.50;1.40;;;12.10;43.60;;;;;;5030008;28;20389;-75
2022/12/29 08:19:44;;;;;;;3.05;1.30;;;12.00;43.60;;;;;;5015402;28;20478;-74
2022/12/29 08:22:09;;;;;;;8.93;1.80;;;12.00;43.80;;;;;;5014329;28;20393;-74
2022/12/29 08:24:35;;;;;;;6.90;2.10;;;12.00;43.50;;;;;;5014542;28;20384;-73
2022/12/29 08:27:01;;;;;;;6.65;2.22;;;11.90;44.70;;;;;;5014691;28;20900;-75
2022/12/29 08:29:27;;;;;;;9.27;1.90;;;11.90;45.10;;;;;;5014249;28;20393;-74
2022/12/29 08:31:52;;;;;;;5.00;1.57;;;12.00;44.20;;;;;;5013104;28;20472;-75
2022/12/29 08:34:18;;;;;;;8.83;1.90;;;12.20;42.90;;;;;;5013820;28;20501;-75
2022/12/29 08:36:44;;;;;;;11.93;2.22;;;12.20;43.10;;;;;;5015612;28;20900;-75
2022/12/29 08:39:09;;;;;;;6.18;1.55;;;12.20;45.50;;;;;;5018453;28;20392;-74
2022/12/29 08:41:35;;;;;;;8.50;1.95;;;12.20;50.70;;;;;;5017235;28;20464;-74
2022/12/29 08:44:00;;;;;;;8.02;2.03;;;11.90;53.50;;;;;;5030291;28;20381;-74
2022/12/29 08:46:26;;;;;;;7.15;1.80;;;11.70;55.20;;;;;;5013849;28;20389;-75
2022/12/29 08:48:52;;;;;;;8.53;1.63;;;11.60;55.80;;;;;;5029554;28;20384;-75
2022/12/29 08:51:18;;;;;;;11.98;2.30;;;11.50;55.40;;;;;;5028692;28;20753;-75
2022/12/29 08:53:44;;;;;;;5.87;1.50;;;11.50;56.60;;;;;;5012858;28;20393;-74
2022/12/29 08:56:11;;;;;;;11.23;1.90;;;11.60;53.60;;;;;;5013772;28;20412;-74
2022/12/29 08:58:37;;;;;;;6.60;1.60;;;11.70;53.00;;;;;;5013693;28;20404;-75
2022/12/29 09:01:03;;;;;;;8.48;2.00;;;11.80;51.80;;;;;;5014882;28;20405;-74
2022/12/29 09:03:28;;;;;;;9.10;2.22;;;11.80;51.20;;;;;;5015580;28;20425;-75
2022/12/29 09:05:55;;;;;;;5.50;1.80;;;11.80;49.50;;;;;;5018914;28;20385;-74
2022/12/29 09:08:22;;;;;;;12.57;1.70;;;11.80;49.40;;;;;;5043589;28;20400;-73
2022/12/29 09:10:47;;;;;;;7.97;1.65;;;12.00;46.00;;;;;;5017434;28;20428;-75
2022/12/29 09:13:14;;;;;;;8.65;1.70;;;12.00;46.70;;;;;;5037882;22;20425;-75
2022/12/29 09:15:40;;;;;;;7.88;2.10;;;11.90;48.20;;;;;;5075498;28;20884;-76
2022/12/29 09:18:07;;;;;;;13.43;2.40;;;11.90;48.30;;;;;;5074281;28;20388;-75
2022/12/29 09:20:33;;;;;;;7.15;1.80;;;11.90;47.60;;;;;;5075511;28;20404;-75
2022/12/29 09:23:00;;;;;;;6.13;1.80;;;11.90;48.10;;;;;;5082211;28;20435;-75
2022/12/29 09:25:25;;;;;;;11.02;2.30;;;12.00;47.30;;;;;;5077611;28;20455;-75
2022/12/29 09:27:54;;;;;;;11.75;2.00;;;12.10;47.10;;;;;;5080475;28;20475;-75
2022/12/29 09:30:22;;;;;;;4.15;1.45;;;12.10;45.90;;;;;;5075117;28;20391;-74
2022/12/29 09:32:48;;;;;;;11.35;2.30;;;12.20;45.00;;;;;;5073493;28;20383;-76
2022/12/29 09:35:15;;;;;;;8.43;1.90;;;12.20;44.80;;;;;;5074321;28;20391;-75
2022/12/29 09:37:41;;;;;;;7.53;1.70;;;12.30;44.40;;;;;;5074565;28;20411;-75
2022/12/29 09:40:18;;;;;;;7.47;2.00;;;12.40;42.80;;;;;;5078700;28;20463;-73
2022/12/29 09:43:12;;;;;;;6.15;1.80;;;12.40;43.40;;;;;;5076760;28;20375;-74
2022/12/29 09:45:45;;;;;;;8.97;2.30;;;12.40;40.60;;;;;;5049007;28;20386;-74
2022/12/29 09:48:37;;;;;;;7.82;2.05;;;12.50;40.10;;;;;;5076095;28;20554;-76
2022/12/29 09:51:10;;;;;;;9.47;2.30;;;12.60;39.90;;;;;;5077327;28;20395;-75
2022/12/29 09:53:44;;;;;;;10.70;2.07;;;12.60;39.80;;;;;;5084138;28;20387;-77
2022/12/29 09:56:15;;;;;;;7.10;2.00;;;12.60;38.90;;;;;;5086831;28;20467;-75
2022/12/29 09:58:55;;;;;;;8.87;2.00;;;12.60;38.60;;;;;;5084993;28;20469;-75
2022/12/29 10:01:32;;;;;;;8.13;1.90;;;12.60;37.00;;;;;;5079282;28;20483;-75
2022/12/29 10:04:02;;;;;;;14.93;2.20;;;12.70;37.00;;;;;;5081960;28;20372;-76
2022/12/29 10:06:53;;;;;;;7.75;2.25;;;12.70;35.70;;;;;;5078648;28;20388;-75
2022/12/29 10:09:45;;;;;;;8.00;2.20;;;12.80;36.00;;;;;;5084669;28;20537;-75
2022/12/29 10:12:35;;;;;;;8.13;2.00;;;12.80;34.10;;;;;;5088831;28;20400;-76
2022/12/29 10:15:28;;;;;;;6.60;1.75;;;12.90;33.20;;;;;;5089234;28;20398;-74
2022/12/29 10:18:20;;;;;;;11.07;2.40;;;12.90;32.20;;;;;;5087908;28;20410;-75
2022/12/29 10:21:13;;;;;;;8.77;2.30;;;12.90;32.60;;;;;;5088538;28;20415;-77
2022/12/29 10:23:44;;;;;;;12.13;2.20;;;12.80;33.50;;;;;;5085721;28;20471;-76
2022/12/29 10:26:15;;;;;;;14.10;2.42;;;13.00;32.80;;;;;;5090020;28;20439;-76
2022/12/29 10:28:49;;;;;;;10.47;2.20;;;13.00;32.60;;;;;;5090823;28;20483;-75
2022/12/29 10:31:25;;;;;;;9.55;2.55;;;13.00;32.30;;;;;;5084112;28;20418;-74
2022/12/29 10:33:59;;;;;;;8.68;2.50;;;13.10;32.60;;;;;;5085106;28;20379;-75
2022/12/29 10:36:35;;;;;;;13.60;2.45;;;13.10;31.80;;;;;;5090856;28;20407;-77
2022/12/29 10:39:38;;;;;;;5.72;1.63;;;13.20;32.30;;;;;;5088203;28;20376;-76
2022/12/29 10:42:07;;;;;;;12.30;2.90;;;13.20;31.40;;;;;;5088688;28;20403;-75
2022/12/29 10:44:34;;;;;;;9.13;2.20;;;13.30;31.80;;;;;;5087386;28;20384;-74
2022/12/29 10:47:05;;;;;;;9.45;2.88;;;13.20;31.60;;;;;;5084910;28;20378;-77
2022/12/29 10:49:36;;;;;;;12.10;2.00;;;13.20;31.90;;;;;;5081605;28;20384;-75
2022/12/29 10:52:04;;;;;;;13.57;1.90;;;13.10;31.90;;;;;;5075032;28;20477;-76
2022/12/29 10:54:41;;;;;;;7.70;2.10;;;13.10;31.80;;;;;;5075095;28;20512;-75
2022/12/29 10:57:26;;;;;;;9.38;1.90;;;13.20;32.20;;;;;;5074901;28;20386;-75
2022/12/29 10:59:51;;;;;;;13.27;2.20;;;13.20;31.60;;;;;;5074653;28;20759;-74
2022/12/29 11:03:09;;;;;;;12.90;2.20;;;13.20;31.70;;;;;;5072722;28;20380;-74
2022/12/29 11:06:15;;;;;;;12.68;2.03;;;13.20;31.20;;;;;;5073321;28;20429;-75
2022/12/29 11:08:53;;;;;;;13.07;2.55;;;13.20;31.00;;;;;;5063772;28;20883;-76
2022/12/29 11:11:28;;;;;;;12.88;2.70;;;13.10;31.50;;;;;;5073571;28;20383;-75
2022/12/29 11:14:14;;;;;;;11.57;2.17;;;13.20;30.90;;;;;;5074206;28;20420;-75
2022/12/29 11:16:41;;;;;;;7.67;2.00;;;13.10;31.80;;;;;;5073730;28;20460;-75
2022/12/29 11:19:23;;;;;;;10.30;2.30;;;13.10;31.20;;;;;;5073765;28;20410;-75
2022/12/29 11:21:49;;;;;;;10.18;2.25;;;13.00;31.00;;;;;;5073799;28;20397;-73
2022/12/29 11:24:25;;;;;;;7.72;1.75;;;13.00;30.70;;;;;;5074931;28;20822;-74
2022/12/29 11:26:56;;;;;;;12.90;2.10;;;13.00;31.10;;;;;;5074176;28;20430;-76
2022/12/29 11:29:36;;;;;;;11.43;2.10;;;12.90;31.20;;;;;;5073708;28;20407;-75
2022/12/29 11:32:18;;;;;;;8.82;2.28;;;12.90;31.10;;;;;;5073154;28;20386;-75
2022/12/29 11:34:44;;;;;;;10.05;1.90;;;12.90;31.20;;;;;;5073069;28;20923;-75
2022/12/29 11:37:17;;;;;;;10.45;2.40;;;12.90;31.80;;;;;;5073669;28;20387;-76
2022/12/29 11:39:56;;;;;;;9.87;2.00;;;12.90;31.40;;;;;;5072335;28;20515;-76
2022/12/29 11:42:33;;;;;;;8.48;2.20;;;12.80;32.40;;;;;;5071934;28;20392;-75
2022/12/29 11:45:15;;;;;;;10.98;2.50;;;12.80;31.40;;;;;;5072287;28;20785;-74
2022/12/29 11:47:45;;;;;;;9.75;2.40;;;12.90;31.50;;;;;;5072449;28;20790;-76
2022/12/29 11:50:18;;;;;;;7.72;2.20;;;12.90;30.70;;;;;;5073964;28;20390;-76
2022/12/29 11:52:44;;;;;;;11.98;2.25;;;12.90;30.60;;;;;;5072751;28;20380;-75
2022/12/29 11:55:20;;;;;;;12.82;2.40;;;12.90;30.70;;;;;;5073503;28;20394;-74
2022/12/29 11:57:46;;;;;;;10.88;2.40;;;12.90;30.90;;;;;;5072196;28;20486;-74
2022/12/29 12:00:21;;;;;;;8.60;2.10;;;12.90;31.10;;;;;;5072144;28;20411;-74
2022/12/29 12:03:04;;;;;;;11.25;2.30;;;12.90;31.00;;;;;;5070570;28;20896;-76
2022/12/29 12:05:52;;;;;;;9.52;2.28;;;12.90;31.00;;;;;;5073030;28;20864;-75
2022/12/29 12:08:37;;;;;;;9.15;2.60;;;13.00;30.90;;;;;;5062970;28;20395;-74
2022/12/29 12:11:35;;;;;;;8.27;2.50;;;12.90;30.90;;;;;;5070828;28;20448;-75
2022/12/29 12:14:42;;;;;;;6.93;2.10;;;12.90;31.10;;;;;;5071248;28;20760;-76
2022/12/29 12:17:18;;;;;;;10.10;2.00;;;12.80;31.10;;;;;;5078887;28;20871;-75
2022/12/29 12:19:53;;;;;;;10.20;2.45;;;12.80;31.30;;;;;;5076916;28;20430;-75
2022/12/29 12:22:41;;;;;;;9.73;2.53;;;12.80;31.30;;;;;;5073086;28;20398;-75
2022/12/29 12:25:29;;;;;;;8.40;2.30;;;12.80;31.50;;;;;;5080394;28;20388;-75
2022/12/29 12:28:05;;;;;;;9.20;2.30;;;12.70;31.30;;;;;;5075732;28;20466;-75
2022/12/29 12:30:40;;;;;;;9.48;2.10;;;12.60;32.00;;;;;;5076258;28;20392;-76
2022/12/29 12:33:26;;;;;;;7.97;2.35;;;12.60;32.00;;;;;;5074013;28;20391;-75
2022/12/29 12:36:30;;;;;;;7.93;1.90;;;12.60;31.70;;;;;;5076865;28;20399;-74
2022/12/29 12:39:12;;;;;;;8.57;2.55;;;12.60;32.30;;;;;;5076398;28;20391;-75
2022/12/29 12:42:11;;;;;;;10.43;2.00;;;12.60;32.00;;;;;;5075103;28;20391;-74
2022/12/29 12:45:07;;;;;;;11.35;2.45;;;12.50;32.00;;;;;;5074848;28;20708;-74
2022/12/29 12:47:55;;;;;;;8.38;2.20;;;12.50;32.40;;;;;;5074940;28;20379;-75
2022/12/29 12:50:45;;;;;;;11.13;2.47;;;12.50;32.30;;;;;;5075891;28;20545;-76
2022/12/29 12:53:34;;;;;;;9.00;2.17;;;12.50;32.00;;;;;;5075034;28;20395;-74
2022/12/29 12:56:21;;;;;;;11.93;2.42;;;12.50;32.30;;;;;;5075357;28;20384;-77
2022/12/29 12:58:52;;;;;;;7.90;2.40;;;12.50;32.10;;;;;;5075847;28;20422;-75
2022/12/29 13:01:29;;;;;;;9.05;1.80;;;12.50;32.10;;;;;;5073616;28;20400;-76
2022/12/29 13:04:07;;;;;;;13.73;2.38;;;12.50;32.50;;;;;;5073556;28;20391;-75
2022/12/29 13:06:40;;;;;;;7.03;2.27;;;12.50;32.20;;;;;;5060691;28;20402;-75
2022/12/29 13:09:11;;;;;;;12.50;2.47;;;12.50;32.00;;;;;;5073888;28;20380;-75
2022/12/29 13:11:59;;;;;;;9.93;2.03;;;12.50;32.20;;;;;;5062403;28;20396;-74
2022/12/29 13:14:42;;;;;;;8.57;2.05;;;12.40;32.70;;;;;;5050960;28;20408;-75
2022/12/29 13:17:36;;;;;;;6.35;1.90;;;12.40;33.20;;;;;;5051929;28;20735;-75
2022/12/29 13:20:11;;;;;;;12.50;3.10;;;12.50;33.20;;;;;;5069733;28;20428;-75
2022/12/29 13:23:00;;;;;;;8.52;2.20;;;12.40;33.70;;;;;;5069608;28;20383;-76
2022/12/29 13:25:45;;;;;;;11.02;2.20;;;12.40;34.00;;;;;;5051533;28;20389;-75
2022/12/29 13:28:17;;;;;;;12.68;2.40;;;12.40;34.30;;;;;;5051873;28;20429;-74
2022/12/29 13:30:57;;;;;;;8.13;1.90;;;12.30;34.40;;;;;;5050338;28;20466;-76
2022/12/29 13:33:42;;;;;;;10.98;2.67;;;12.40;34.40;;;;;;5060975;28;20404;-75
2022/12/29 13:36:34;;;;;;;10.75;2.10;;;12.40;34.40;;;;;;5073106;28;20721;-74
2022/12/29 13:39:30;;;;;;;6.78;2.00;;;12.50;34.10;;;;;;5071475;28;20431;-74
2022/12/29 13:41:56;;;;;;;10.93;2.63;;;12.50;34.30;;;;;;5071795;28;20404;-74
2022/12/29 13:44:46;;;;;;;11.15;2.15;;;12.40;34.50;;;;;;5071095;28;20399;-74